Time;durP1;ratioP1;P1;durP2;ratioP2;P2;SDS_P1;SDS_P2;PMS_P1;PMS_P2;Temp;Humidity;BMP_temperature;BMP_pressure;BME280_temperature;BME280_humidity;BME280_pressure;Samples;Min_cycle;Max_cycle;Signal;HPM_P1;HPM_P2
2022/01/18 00:01:20;;;;;;;34.92;6.47;;;;;;;0.39;100.00;102368.66;4999199;28;20053;-76
2022/01/18 00:03:48;;;;;;;43.40;7.00;;;;;;;0.47;100.00;102371.34;5010210;28;20465;-76
2022/01/18 00:06:15;;;;;;;38.30;6.07;;;;;;;0.44;100.00;102379.09;4997529;28;20037;-76
2022/01/18 00:08:43;;;;;;;50.88;7.65;;;;;;;0.48;100.00;102379.13;5000496;28;20624;-74
2022/01/18 00:11:10;;;;;;;39.28;6.85;;;;;;;0.42;100.00;102379.09;4995339;28;20037;-76
2022/01/18 00:13:44;;;;;;;32.78;6.32;;;;;;;0.48;100.00;102380.88;4997996;28;20047;-76
2022/01/18 00:16:38;;;;;;;38.05;6.35;;;;;;;0.37;100.00;102385.06;4993874;28;20447;-75
2022/01/18 00:19:09;;;;;;;38.58;7.22;;;;;;;0.37;100.00;102392.84;5008165;28;20119;-75
2022/01/18 00:24:22;;;;;;;36.47;6.32;;;;;;;0.33;100.00;102389.34;5004262;28;20148;-75
2022/01/18 00:26:49;;;;;;;36.85;5.90;;;;;;;0.27;100.00;102385.78;4995321;28;20099;-75
2022/01/18 00:29:19;;;;;;;40.83;6.72;;;;;;;0.42;100.00;102410.16;4993701;28;20076;-75
2022/01/18 00:32:02;;;;;;;40.05;6.22;;;;;;;0.32;100.00;102408.34;4994093;28;20061;-76
2022/01/18 00:34:34;;;;;;;34.42;6.35;;;;;;;0.28;100.00;102410.88;5009640;28;20077;-74
2022/01/18 00:39:40;;;;;;;39.58;6.13;;;;;;;0.13;100.00;102412.38;5003379;28;20040;-74
2022/01/18 00:42:09;;;;;;;36.88;6.38;;;;;;;0.08;100.00;102410.59;5017602;28;20119;-75
2022/01/18 00:44:36;;;;;;;42.30;7.50;;;;;;;0.13;100.00;102416.69;5008296;28;20081;-74
2022/01/18 00:47:04;;;;;;;38.20;6.28;;;;;;;0.12;100.00;102421.00;4980834;28;20285;-77
2022/01/18 00:49:32;;;;;;;33.92;6.53;;;;;;;0.11;100.00;102424.47;4980454;28;20057;-77
2022/01/18 00:52:04;;;;;;;33.53;6.20;;;;;;;0.06;100.00;102420.94;4997303;28;20140;-77
2022/01/18 00:54:41;;;;;;;35.17;5.53;;;;;;;0.12;100.00;102425.34;5011601;28;20043;-75
2022/01/18 00:57:08;;;;;;;34.72;6.25;;;;;;;0.14;100.00;102418.47;4997435;28;20123;-74
2022/01/18 00:59:36;;;;;;;32.50;6.30;;;;;;;0.17;100.00;102424.53;5019604;28;20484;-76
2022/01/18 01:02:04;;;;;;;34.92;6.18;;;;;;;0.11;100.00;102431.38;4994907;28;20053;-76
2022/01/18 01:04:36;;;;;;;38.03;7.70;;;;;;;0.06;100.00;102431.31;4981744;28;20096;-75
2022/01/18 01:07:03;;;;;;;41.70;6.82;;;;;;;0.03;100.00;102436.44;4983320;28;20053;-77
2022/01/18 01:09:31;;;;;;;39.55;7.30;;;;;;;0.01;100.00;102437.28;5025673;28;20145;-76
2022/01/18 01:11:58;;;;;;;45.92;7.70;;;;;;;-0.03;100.00;102434.63;4998799;28;20077;-77
2022/01/18 01:14:27;;;;;;;40.17;6.25;;;;;;;0.09;100.00;102436.53;5027931;28;20064;-75
2022/01/18 01:19:42;;;;;;;44.17;7.85;;;;;;;0.10;100.00;102432.22;5001547;28;20426;-74
2022/01/18 01:34:18;;;;;;;36.83;5.85;;;;;;;0.11;100.00;102436.53;5016252;28;20053;-76
2022/01/18 01:42:55;;;;;;;33.67;5.15;;;;;;;-0.21;100.00;102439.56;5030116;28;20049;-75
2022/01/18 01:45:18;;;;;;;45.42;7.20;;;;;;;-0.03;100.00;102437.22;5012956;28;20593;-75
2022/01/18 01:47:50;;;;;;;39.65;5.70;;;;;;;-0.19;100.00;102453.38;4978571;28;20050;-74
2022/01/18 01:50:20;;;;;;;41.88;5.88;;;;;;;-0.23;100.00;102451.59;5016530;28;20064;-75
2022/01/18 01:52:49;;;;;;;38.22;6.28;;;;;;;-0.28;100.00;102455.84;5010870;28;20132;-75
2022/01/18 01:55:18;;;;;;;39.65;7.90;;;;;;;-0.26;100.00;102449.84;5013859;28;20065;-75
2022/01/18 01:57:45;;;;;;;40.22;6.50;;;;;;;-0.14;100.00;102451.72;5003079;28;20427;-76
2022/01/18 02:00:16;;;;;;;41.55;6.55;;;;;;;-0.24;100.00;102443.81;5026862;28;20064;-76
2022/01/18 02:02:43;;;;;;;35.00;6.07;;;;;;;-0.22;100.00;102450.78;5008371;28;20399;-75
2022/01/18 02:05:12;;;;;;;35.35;6.75;;;;;;;-0.21;100.00;102446.47;5014450;28;20049;-73
2022/01/18 02:07:39;;;;;;;42.22;8.15;;;;;;;-0.12;100.00;102444.00;4989898;28;20053;-76
2022/01/18 02:10:07;;;;;;;36.60;5.93;;;;;;;-0.23;100.00;102441.25;4998957;28;20960;-75
2022/01/18 02:12:35;;;;;;;46.45;8.27;;;;;;;-0.14;100.00;102438.78;5013130;28;20128;-77
2022/01/18 02:15:11;;;;;;;37.55;7.00;;;;;;;-0.22;100.00;102445.59;5035067;28;20594;-76
2022/01/18 02:23:26;;;;;;;43.38;6.88;;;;;;;-0.26;100.00;102436.03;4996546;28;20488;-74
2022/01/18 02:25:53;;;;;;;56.13;8.63;;;;;;;-0.22;100.00;102442.13;4979444;28;20190;-74
2022/01/18 02:28:22;;;;;;;33.55;6.50;;;;;;;-0.33;100.00;102432.47;5005774;28;20045;-75
2022/01/18 02:30:50;;;;;;;46.25;6.53;;;;;;;-0.29;100.00;102438.56;5009014;28;20049;-74
2022/01/18 02:33:17;;;;;;;43.95;5.82;;;;;;;-0.35;100.00;102441.94;4988706;28;20045;-74
2022/01/18 02:35:46;;;;;;;50.42;6.93;;;;;;;-0.24;100.00;102444.69;5013667;28;23907;-74
2022/01/18 02:38:13;;;;;;;46.45;7.18;;;;;;;-0.26;100.00;102451.56;4994813;28;20432;-74
2022/01/18 02:40:44;;;;;;;47.90;8.38;;;;;;;-0.30;100.00;102436.84;4995950;28;20069;-75
2022/01/18 02:45:58;;;;;;;40.45;7.18;;;;;;;-0.22;100.00;102445.59;5008539;28;20120;-74
2022/01/18 02:48:27;;;;;;;34.58;6.10;;;;;;;-0.32;100.00;102444.56;4998455;28;20149;-76
2022/01/18 02:50:54;;;;;;;34.08;6.90;;;;;;;-0.36;100.00;102442.78;5001435;28;20535;-75
2022/01/18 02:53:21;;;;;;;34.60;7.00;;;;;;;-0.40;100.00;102445.31;4998714;28;20509;-75
2022/01/18 02:55:50;;;;;;;55.83;6.60;;;;;;;-0.35;100.00;102449.72;4989740;28;20441;-74
2022/01/18 02:58:25;;;;;;;37.47;7.07;;;;;;;-0.45;100.00;102444.34;4996017;28;20045;-74
2022/01/18 03:03:36;;;;;;;47.20;7.10;;;;;;;-0.57;100.00;102452.81;5012206;28;20455;-76
2022/01/18 03:06:07;;;;;;;55.85;6.88;;;;;;;-0.51;100.00;102458.94;4983214;28;20157;-75
2022/01/18 03:08:34;;;;;;;40.95;6.78;;;;;;;-0.49;100.00;102464.16;5020177;28;20046;-75
2022/01/18 03:11:02;;;;;;;46.47;7.05;;;;;;;-0.57;100.00;102468.31;4995824;28;20175;-74
2022/01/18 03:13:30;;;;;;;42.90;6.38;;;;;;;-0.64;100.00;102472.50;4998672;28;20132;-75
2022/01/18 03:15:57;;;;;;;56.42;8.50;;;;;;;-0.56;100.00;102468.34;5001795;28;20073;-75
2022/01/18 03:18:25;;;;;;;56.72;8.38;;;;;;;-0.51;100.00;102471.88;5015644;28;20042;-76
2022/01/18 03:20:58;;;;;;;45.28;6.97;;;;;;;-0.52;100.00;102469.25;5079475;27;21201;-66
2022/01/18 03:23:26;;;;;;;43.10;6.50;;;;;;;-0.48;100.00;102462.44;5089189;28;20491;-66
2022/01/18 03:25:59;;;;;;;45.40;6.20;;;;;;;-0.47;100.00;102471.94;5087369;28;20579;-65
2022/01/18 03:28:27;;;;;;;40.00;6.30;;;;;;;-0.49;100.00;102484.84;5080108;28;21378;-66
2022/01/18 03:30:57;;;;;;;36.58;6.10;;;;;;;-0.58;100.00;102484.69;5083476;28;20136;-65
2022/01/18 03:33:28;;;;;;;42.42;6.55;;;;;;;-0.59;100.00;102486.38;5072449;28;20055;-66
2022/01/18 03:35:57;;;;;;;52.92;6.90;;;;;;;-0.46;100.00;102484.00;5083446;28;20060;-65
2022/01/18 03:38:31;;;;;;;47.22;7.43;;;;;;;-0.46;100.00;102476.25;5078306;28;20353;-66
2022/01/18 03:41:03;;;;;;;35.33;6.45;;;;;;;-0.57;100.00;102479.53;5074253;28;20049;-65
2022/01/18 03:43:31;;;;;;;33.33;5.57;;;;;;;-0.58;100.00;102482.97;5083004;28;20541;-66
2022/01/18 03:46:04;;;;;;;36.03;5.55;;;;;;;-0.55;100.00;102479.56;5078887;28;20728;-66
2022/01/18 03:48:38;;;;;;;43.75;7.07;;;;;;;-0.57;100.00;102489.03;5085175;28;20584;-66
2022/01/18 03:51:07;;;;;;;41.20;7.20;;;;;;;-0.46;100.00;102497.81;5081992;28;20123;-66
2022/01/18 03:53:34;;;;;;;35.22;6.50;;;;;;;-0.49;100.00;102490.03;5080045;28;20491;-66
2022/01/18 03:56:03;;;;;;;34.35;5.43;;;;;;;-0.52;100.00;102487.38;5082422;28;20135;-66
2022/01/18 03:58:30;;;;;;;40.80;5.65;;;;;;;-0.57;100.00;102495.06;5085090;28;20051;-66
2022/01/18 04:00:57;;;;;;;39.38;6.00;;;;;;;-0.59;100.00;102486.38;5076705;28;20059;-66
2022/01/18 04:03:26;;;;;;;33.10;5.57;;;;;;;-0.68;100.00;102501.75;5084912;28;20611;-67
2022/01/18 04:05:53;;;;;;;38.47;5.80;;;;;;;-0.63;100.00;102501.81;5079889;28;20052;-66
2022/01/18 04:08:21;;;;;;;38.95;6.43;;;;;;;-0.62;100.00;102509.63;5084146;28;20054;-67
2022/01/18 04:10:49;;;;;;;41.17;6.50;;;;;;;-0.59;100.00;102511.38;5078739;28;20057;-67
2022/01/18 04:13:16;;;;;;;35.78;6.25;;;;;;;-0.63;100.00;102517.34;5066442;28;20052;-65
2022/01/18 04:15:44;;;;;;;40.00;5.85;;;;;;;-0.69;100.00;102509.50;5072606;28;20067;-69
2022/01/18 04:18:25;;;;;;;45.85;6.85;;;;;;;-0.60;100.00;102515.69;5090870;28;20139;-66
2022/01/18 04:28:58;;;;;;;46.05;6.50;;;;;;;-0.70;100.00;102523.28;5095673;28;20054;-66
2022/01/18 04:31:27;;;;;;;41.10;6.00;;;;;;;-0.69;100.00;102530.19;5056612;28;20490;-66
2022/01/18 04:33:56;;;;;;;28.13;5.10;;;;;;;-0.54;100.00;102530.44;5079019;28;20048;-66
2022/01/18 04:36:24;;;;;;;42.03;6.18;;;;;;;-0.51;100.00;102533.09;5064366;28;20050;-65
2022/01/18 04:38:51;;;;;;;45.38;6.68;;;;;;;-0.41;100.00;102531.53;5064812;28;20049;-66
2022/01/18 04:41:25;;;;;;;39.67;4.75;;;;;;;-0.31;100.00;102526.53;5061287;28;20493;-66
2022/01/18 04:49:14;;;;;;;27.52;5.68;;;;;;;-0.26;100.00;102535.25;5061509;28;20564;-66
2022/01/18 04:51:44;;;;;;;33.78;5.60;;;;;;;-0.21;100.00;102532.75;5059749;28;20057;-67
2022/01/18 04:54:12;;;;;;;39.92;5.80;;;;;;;-0.03;100.00;102525.25;5067993;28;20044;-66
2022/01/18 04:59:09;;;;;;;46.90;6.70;;;;;;;0.01;100.00;102535.66;5069684;28;20053;-65
2022/01/18 05:01:38;;;;;;;27.83;4.63;;;;;;;-0.02;100.00;102536.47;5055724;28;20052;-64
2022/01/18 05:04:06;;;;;;;36.40;5.70;;;;;;;0.01;100.00;102546.03;5059085;28;20131;-65
2022/01/18 05:06:34;;;;;;;43.40;5.85;;;;;;;0.17;100.00;102548.84;5054823;28;20055;-66
2022/01/18 05:09:08;;;;;;;39.55;6.82;;;;;;;0.37;100.00;102543.97;5071794;28;20480;-66
2022/01/18 05:11:43;;;;;;;37.80;5.70;;;;;;;0.28;100.00;102532.63;5058589;28;20476;-66
2022/01/18 05:14:26;;;;;;;37.80;5.20;;;;;;;0.24;100.00;102539.47;5049843;28;20895;-68
2022/01/18 05:17:02;;;;;;;29.70;5.35;;;;;;;0.18;100.00;102552.31;5065408;28;20416;-68
2022/01/18 05:19:44;;;;;;;27.63;5.13;;;;;;;0.27;100.00;102546.38;5054459;28;20151;-64
2022/01/18 05:24:57;;;;;;;35.25;6.50;;;;;;;0.24;100.00;102555.00;5057591;28;20135;-66
2022/01/18 05:27:24;;;;;;;31.58;6.40;;;;;;;0.20;100.00;102559.25;5060352;28;20592;-68
2022/01/18 05:29:52;;;;;;;35.88;6.07;;;;;;;0.25;100.00;102561.91;5055420;28;20176;-66
2022/01/18 05:32:19;;;;;;;40.42;5.85;;;;;;;0.25;100.00;102556.75;5056546;28;20052;-65
2022/01/18 05:34:48;;;;;;;32.92;4.43;;;;;;;0.24;100.00;102549.81;5065063;28;20048;-67
2022/01/18 05:37:16;;;;;;;32.97;5.53;;;;;;;0.31;100.00;102561.13;5046990;28;20131;-64
2022/01/18 05:43:14;;;;;;;36.28;5.90;;;;;;;0.27;100.00;102565.44;5063207;28;20501;-66
2022/01/18 05:45:41;;;;;;;27.40;4.93;;;;;;;0.27;100.00;102572.28;5050371;28;20048;-66
2022/01/18 05:48:11;;;;;;;41.20;6.20;;;;;;;0.31;100.00;102566.31;5066131;28;20040;-67
2022/01/18 05:50:38;;;;;;;36.90;5.57;;;;;;;0.31;100.00;102559.41;5058073;28;20418;-66
2022/01/18 05:53:05;;;;;;;40.10;5.68;;;;;;;0.23;100.00;102567.09;5067055;28;20044;-66
2022/01/18 05:55:33;;;;;;;32.55;5.18;;;;;;;0.18;100.00;102573.94;5061142;28;20052;-67
2022/01/18 05:58:00;;;;;;;33.42;5.85;;;;;;;0.13;100.00;102577.28;5080588;28;20044;-67
2022/01/18 06:00:29;;;;;;;29.98;5.18;;;;;;;0.14;100.00;102574.72;5065222;28;20072;-66
2022/01/18 06:08:15;;;;;;;32.97;5.20;;;;;;;0.00;100.00;102568.47;5059970;28;20050;-66
2022/01/18 06:10:43;;;;;;;26.48;5.32;;;;;;;0.07;100.00;102564.22;5055814;28;20659;-66
2022/01/18 06:13:10;;;;;;;40.13;5.32;;;;;;;0.00;100.00;102568.47;5058869;28;20851;-66
2022/01/18 06:15:37;;;;;;;38.58;6.53;;;;;;;-0.11;100.00;102573.44;5047608;28;20098;-66
2022/01/18 06:18:04;;;;;;;45.55;6.80;;;;;;;-0.16;100.00;102576.81;5067193;28;20131;-66
2022/01/18 06:20:32;;;;;;;39.22;6.07;;;;;;;-0.19;100.00;102580.22;5056608;28;20135;-67
2022/01/18 06:23:00;;;;;;;32.33;5.05;;;;;;;-0.21;100.00;102578.47;5061406;28;20405;-66
2022/01/18 06:25:28;;;;;;;28.92;4.97;;;;;;;-0.25;100.00;102577.53;5051170;28;20136;-66
2022/01/18 06:27:55;;;;;;;31.75;5.07;;;;;;;-0.19;100.00;102579.34;5058444;28;20429;-67
2022/01/18 06:30:22;;;;;;;27.38;6.18;;;;;;;-0.17;100.00;102575.94;5054011;28;20068;-67
2022/01/18 06:32:50;;;;;;;36.42;5.93;;;;;;;-0.11;100.00;102576.03;5052578;28;20061;-66
2022/01/18 06:35:17;;;;;;;34.97;5.13;;;;;;;-0.15;100.00;102584.59;5055776;28;20135;-66
2022/01/18 06:37:46;;;;;;;40.35;6.50;;;;;;;-0.16;100.00;102587.16;5053099;28;20059;-66
2022/01/18 06:40:22;;;;;;;33.30;4.57;;;;;;;0.01;100.00;102585.72;5056938;28;20576;-68
2022/01/18 06:42:49;;;;;;;32.65;4.57;;;;;;;-0.05;100.00;102594.25;5053086;28;20780;-65
2022/01/18 06:45:17;;;;;;;31.60;5.03;;;;;;;-0.04;100.00;102595.16;5060299;28;20071;-68
2022/01/18 06:47:44;;;;;;;40.00;5.15;;;;;;;-0.04;100.00;102600.31;5058286;28;20044;-67
2022/01/18 06:50:13;;;;;;;27.15;4.03;;;;;;;0.11;100.00;102597.97;5054611;28;20131;-68
2022/01/18 06:52:40;;;;;;;36.85;5.75;;;;;;;0.13;100.00;102603.16;5054604;28;20067;-67
2022/01/18 06:55:08;;;;;;;35.33;4.40;;;;;;;0.17;100.00;102602.38;5056400;28;20090;-65
2022/01/18 06:57:35;;;;;;;35.65;5.03;;;;;;;0.10;100.00;102605.72;5053634;28;20041;-68
2022/01/18 07:00:04;;;;;;;33.75;5.15;;;;;;;0.09;100.00;102611.72;5057180;28;20049;-68
2022/01/18 07:02:32;;;;;;;31.25;5.07;;;;;;;0.17;100.00;102612.72;5058616;28;20036;-67
2022/01/18 07:04:59;;;;;;;26.42;5.53;;;;;;;0.29;100.00;102623.28;5048370;28;20416;-68
2022/01/18 07:07:26;;;;;;;32.50;4.60;;;;;;;0.26;100.00;102620.66;5059066;28;20060;-68
2022/01/18 07:09:53;;;;;;;31.70;4.57;;;;;;;0.41;100.00;102630.38;5059054;28;20052;-67
2022/01/18 07:12:22;;;;;;;26.08;4.70;;;;;;;0.32;100.00;102632.84;5053870;28;20052;-68
2022/01/18 07:14:49;;;;;;;29.80;4.90;;;;;;;0.35;100.00;102632.88;5056482;28;20053;-66
2022/01/18 07:17:16;;;;;;;38.35;5.03;;;;;;;0.39;100.00;102637.25;5057998;28;20499;-66
2022/01/18 07:19:43;;;;;;;26.58;4.10;;;;;;;0.48;100.00;102639.97;5054188;28;20045;-67
2022/01/18 07:22:11;;;;;;;34.17;4.65;;;;;;;0.59;100.00;102654.00;5058509;28;20048;-67
2022/01/18 07:27:07;;;;;;;26.08;4.43;;;;;;;0.84;100.00;102655.19;5058559;28;20048;-66
2022/01/18 07:29:35;;;;;;;31.85;4.90;;;;;;;0.95;100.00;102653.63;5041685;28;20095;-66
2022/01/18 07:32:02;;;;;;;24.90;4.97;;;;;;;1.02;100.00;102657.16;5060352;28;20076;-67
2022/01/18 07:34:32;;;;;;;31.00;5.60;;;;;;;1.10;100.00;102663.31;5056683;28;20131;-67
2022/01/18 07:36:59;;;;;;;27.48;4.57;;;;;;;1.15;100.00;102665.97;5062334;28;20135;-66
2022/01/18 07:39:26;;;;;;;32.95;5.07;;;;;;;1.24;100.00;102671.28;5063621;28;20165;-67
2022/01/18 07:41:53;;;;;;;27.52;5.18;;;;;;;1.35;100.00;102672.28;5056256;28;20056;-66
2022/01/18 07:44:20;;;;;;;29.60;5.50;;;;;;;1.45;100.00;102681.06;5053775;28;20375;-66
2022/01/18 07:46:48;;;;;;;38.78;5.05;;;;;;;1.56;100.00;102676.84;5057384;28;20624;-66
2022/01/18 07:49:15;;;;;;;36.28;5.53;;;;;;;1.69;100.00;102683.91;5062975;28;20052;-67
2022/01/18 07:51:42;;;;;;;23.98;5.05;;;;;;;1.76;100.00;102679.69;5058285;28;20055;-67
2022/01/18 07:54:10;;;;;;;26.00;5.60;;;;;;;1.78;100.00;102683.16;5061409;28;20053;-66
2022/01/18 07:56:41;;;;;;;25.73;4.55;;;;;;;1.77;100.00;102691.78;5053848;28;20048;-66
2022/01/18 07:59:12;;;;;;;35.47;5.38;;;;;;;1.80;100.00;102694.41;5060673;28;20049;-66
2022/01/18 08:01:42;;;;;;;26.45;4.55;;;;;;;1.95;100.00;102694.56;5065643;28;20145;-66
2022/01/18 08:04:10;;;;;;;32.60;4.68;;;;;;;2.03;100.00;102705.06;5056236;28;20841;-67
2022/01/18 08:06:38;;;;;;;25.92;4.20;;;;;;;2.17;100.00;102707.78;5058664;28;20520;-67
2022/01/18 08:09:05;;;;;;;29.15;5.70;;;;;;;2.25;100.00;102716.50;5065538;28;20066;-67
2022/01/18 08:11:33;;;;;;;22.85;4.35;;;;;;;2.30;100.00;102709.63;5063297;28;20374;-68
2022/01/18 08:14:01;;;;;;;26.70;5.03;;;;;;;2.34;100.00;102716.56;5061658;28;20139;-68
2022/01/18 08:18:58;;;;;;;29.08;4.22;;;;;;;2.36;100.00;102720.06;5063538;28;20115;-67
2022/01/18 08:21:25;;;;;;;19.75;4.10;;;;;;;2.42;100.00;102732.25;5074307;28;20044;-67
2022/01/18 08:23:52;;;;;;;32.65;5.38;;;;;;;2.48;100.00;102729.72;5061057;28;20147;-65
2022/01/18 08:26:19;;;;;;;47.15;6.20;;;;;;;2.59;100.00;102724.59;5062150;28;20419;-68
2022/01/18 08:28:47;;;;;;;24.13;5.32;;;;;;;2.61;100.00;102726.34;5059994;28;20045;-67
2022/01/18 08:31:14;;;;;;;19.38;4.15;;;;;;;2.66;100.00;102729.00;5062663;28;20048;-68
2022/01/18 08:33:41;;;;;;;29.23;5.00;;;;;;;2.70;99.62;102729.03;5058318;28;20147;-70
2022/01/18 08:36:09;;;;;;;24.13;4.53;;;;;;;2.70;98.80;102728.13;5060470;28;20127;-66
2022/01/18 08:38:37;;;;;;;20.45;4.50;;;;;;;2.84;98.16;102736.03;5062285;28;20060;-67
2022/01/18 08:41:04;;;;;;;27.92;3.90;;;;;;;2.75;98.05;102737.72;5060566;28;20422;-69
2022/01/18 08:43:32;;;;;;;30.67;4.35;;;;;;;2.73;97.64;102730.75;5060465;28;20063;-68
2022/01/18 08:46:00;;;;;;;26.33;4.28;;;;;;;2.73;97.95;102733.34;5057575;28;20595;-67
2022/01/18 08:48:28;;;;;;;22.25;3.70;;;;;;;2.73;98.39;102728.16;5059989;28;20053;-69
2022/01/18 08:50:55;;;;;;;29.30;3.40;;;;;;;2.85;97.75;102724.78;5058042;28;20579;-68
2022/01/18 08:53:23;;;;;;;21.48;4.15;;;;;;;3.01;97.01;102740.47;5058462;28;20071;-67
2022/01/18 08:55:50;;;;;;;18.40;4.45;;;;;;;3.00;96.35;102730.94;5063843;28;21068;-68
2022/01/18 08:58:17;;;;;;;26.25;4.63;;;;;;;2.96;96.83;102738.72;5060305;28;20044;-67
2022/01/18 09:00:44;;;;;;;17.27;3.35;;;;;;;3.08;96.68;102730.13;5058684;28;20453;-67
2022/01/18 09:03:11;;;;;;;34.55;4.78;;;;;;;3.12;96.65;102742.31;5055059;28;20124;-68
2022/01/18 09:05:39;;;;;;;36.90;4.55;;;;;;;3.24;95.69;102752.75;5065484;28;20049;-67
2022/01/18 09:08:08;;;;;;;21.33;4.00;;;;;;;3.25;95.65;102759.72;5058276;28;20053;-67
2022/01/18 09:10:35;;;;;;;24.20;4.50;;;;;;;3.36;94.43;102745.03;5051216;28;20052;-66
2022/01/18 09:13:03;;;;;;;31.20;4.22;;;;;;;3.44;93.85;102743.31;5062033;28;20607;-66
2022/01/18 09:15:30;;;;;;;29.13;4.70;;;;;;;3.43;94.69;102752.00;5057244;28;20051;-68
2022/01/18 09:17:58;;;;;;;23.25;5.10;;;;;;;3.45;94.27;102759.81;5064404;28;20463;-67
2022/01/18 09:20:25;;;;;;;26.55;4.45;;;;;;;3.52;94.04;102765.06;5055672;28;20052;-67
2022/01/18 09:22:53;;;;;;;23.55;5.20;;;;;;;3.51;93.31;102760.72;5062553;28;20064;-67
2022/01/18 09:25:26;;;;;;;28.70;4.50;;;;;;;3.63;93.20;102757.28;5063590;28;20075;-67
2022/01/18 09:27:54;;;;;;;29.30;4.50;;;;;;;3.80;93.36;102754.75;5068291;28;20098;-66
2022/01/18 09:30:25;;;;;;;17.33;3.75;;;;;;;3.80;92.79;102768.66;5066482;28;20040;-67
2022/01/18 09:32:54;;;;;;;16.23;3.38;;;;;;;3.80;91.83;102762.56;5066743;28;20077;-66
2022/01/18 09:35:22;;;;;;;28.15;4.88;;;;;;;4.01;90.49;102760.03;5064168;28;20075;-67
2022/01/18 09:37:49;;;;;;;23.30;4.57;;;;;;;4.00;89.71;102755.66;5063149;28;20055;-68
2022/01/18 09:40:19;;;;;;;26.20;3.53;;;;;;;3.99;90.68;102759.16;5061911;28;20082;-66
2022/01/18 09:42:47;;;;;;;16.98;4.15;;;;;;;3.99;90.60;102761.75;5059049;28;20052;-66
2022/01/18 09:45:16;;;;;;;25.17;4.28;;;;;;;4.02;90.24;102766.97;5055892;28;20084;-67
2022/01/18 09:47:46;;;;;;;26.02;4.68;;;;;;;4.10;89.84;102763.50;5066440;28;20654;-66
2022/01/18 09:50:16;;;;;;;24.20;4.47;;;;;;;4.32;89.26;102760.06;5062382;28;20147;-68
2022/01/18 09:52:48;;;;;;;21.35;4.25;;;;;;;4.45;87.49;102759.22;5052500;28;20052;-67
2022/01/18 09:55:15;;;;;;;25.67;4.28;;;;;;;4.40;87.34;102754.88;5054386;28;20156;-66
2022/01/18 09:57:42;;;;;;;21.63;4.22;;;;;;;4.41;88.16;102762.69;5061257;28;20052;-68
2022/01/18 10:00:10;;;;;;;19.27;4.10;;;;;;;4.33;87.72;102769.66;5062468;28;20117;-67
2022/01/18 10:02:37;;;;;;;26.08;4.40;;;;;;;4.54;90.50;102769.66;5056478;28;20049;-68
2022/01/18 10:05:22;;;;;;;22.08;3.55;;;;;;;4.61;86.41;102769.69;5060933;28;20078;-67
2022/01/18 10:08:02;;;;;;;30.02;5.03;;;;;;;4.67;86.12;102773.13;5082787;22;20088;-61
2022/01/18 10:10:47;;;;;;;22.77;5.05;;;;;;;4.75;86.25;102773.16;5064470;28;20198;-62
2022/01/18 10:13:16;;;;;;;16.42;4.13;;;;;;;4.77;86.47;102771.38;5066597;28;20532;-60
2022/01/18 10:16:08;;;;;;;31.70;5.05;;;;;;;4.77;86.35;102767.06;5064759;28;20311;-60
2022/01/18 10:18:45;;;;;;;15.20;3.53;;;;;;;4.81;85.62;102773.13;5069562;28;20063;-61
2022/01/18 10:21:30;;;;;;;25.67;3.83;;;;;;;4.82;85.25;102770.53;5066565;28;20091;-60
2022/01/18 10:24:22;;;;;;;26.83;4.25;;;;;;;4.89;84.99;102762.69;5063318;28;20147;-62
2022/01/18 10:26:54;;;;;;;22.10;3.85;;;;;;;4.90;84.66;102774.88;5062577;28;20056;-61
2022/01/18 10:29:27;;;;;;;25.50;4.40;;;;;;;4.89;84.83;102776.59;5068845;28;20053;-61
2022/01/18 10:31:57;;;;;;;22.35;3.28;;;;;;;4.98;84.25;102771.38;5068149;28;20056;-61
2022/01/18 10:37:11;;;;;;;15.32;3.38;;;;;;;5.02;83.68;102762.66;5065801;28;20135;-61
2022/01/18 10:39:48;;;;;;;;;;;;;;;5.03;83.78;102767.00;5070210;28;20044;-61
2022/01/18 10:42:17;;;;;;;15.32;3.00;;;;;;;5.19;82.80;102770.47;5069547;28;19963;-61
2022/01/18 10:44:49;;;;;;;16.33;3.60;;;;;;;5.37;81.98;102763.47;5067541;28;20523;-62
2022/01/18 10:47:17;;;;;;;18.38;3.05;;;;;;;5.45;81.73;102770.41;5057315;28;20044;-61
2022/01/18 10:49:47;;;;;;;21.88;3.53;;;;;;;5.49;81.89;102764.31;5062171;28;20079;-61
2022/01/18 10:52:20;;;;;;;13.60;3.30;;;;;;;5.51;81.37;102753.84;5064251;28;20150;-61
2022/01/18 10:54:52;;;;;;;18.80;3.53;;;;;;;5.64;80.42;102752.06;5070342;28;20139;-61
2022/01/18 10:57:22;;;;;;;23.88;4.20;;;;;;;5.54;79.95;102757.31;5065019;28;20133;-61
2022/01/18 10:59:55;;;;;;;14.95;3.70;;;;;;;5.83;79.95;102751.09;5061796;28;20059;-61
2022/01/18 11:02:22;;;;;;;15.52;2.85;;;;;;;6.28;79.04;102764.78;5066334;28;20056;-61
2022/01/18 11:04:52;;;;;;;14.48;2.90;;;;;;;6.24;77.41;102768.31;5065445;28;20064;-61
2022/01/18 11:07:22;;;;;;;10.70;2.85;;;;;;;6.29;76.88;102775.22;5070275;28;20143;-61
2022/01/18 11:09:51;;;;;;;19.73;3.33;;;;;;;6.35;76.27;102758.66;5061947;28;20053;-61
2022/01/18 11:12:20;;;;;;;19.90;3.45;;;;;;;6.52;75.96;102767.22;5072565;28;20141;-61
2022/01/18 11:14:59;;;;;;;14.43;3.20;;;;;;;6.31;76.17;102772.63;5074193;28;20131;-61
2022/01/18 11:17:27;;;;;;;21.17;3.05;;;;;;;6.03;77.11;102767.56;5064403;28;20475;-59
2022/01/18 11:19:56;;;;;;;13.68;2.75;;;;;;;6.03;76.87;102777.13;5064363;28;20072;-61
2022/01/18 11:22:25;;;;;;;10.07;2.47;;;;;;;6.09;77.81;102778.00;5066440;28;20053;-61
2022/01/18 11:25:00;;;;;;;17.38;2.70;;;;;;;5.91;77.00;102764.13;5064752;28;20491;-60
2022/01/18 11:27:29;;;;;;;13.40;3.05;;;;;;;5.83;77.73;102758.91;5062709;28;20044;-61
2022/01/18 11:29:57;;;;;;;16.08;2.50;;;;;;;5.93;77.37;102758.03;5071355;28;20059;-60
2022/01/18 11:32:26;;;;;;;18.50;3.30;;;;;;;5.91;76.71;102758.91;5067823;28;20181;-61
2022/01/18 11:35:13;;;;;;;11.70;2.55;;;;;;;6.01;76.76;102758.84;5080028;28;20051;-59
2022/01/18 11:38:02;;;;;;;11.70;2.55;;;;;;;5.99;75.74;102771.09;5059449;28;20052;-61
2022/01/18 11:40:49;;;;;;;15.68;2.72;;;;;;;5.79;75.18;102758.06;5052795;28;20309;-61
2022/01/18 11:43:39;;;;;;;14.95;2.40;;;;;;;5.43;75.64;102772.16;5067440;28;20076;-61
2022/01/18 11:46:26;;;;;;;10.20;2.45;;;;;;;5.32;77.16;102776.53;5064905;28;20523;-61
2022/01/18 11:49:08;;;;;;;11.07;2.67;;;;;;;5.28;77.42;102764.38;5063759;28;20063;-61
2022/01/18 11:51:53;;;;;;;13.82;2.42;;;;;;;5.25;78.59;102774.81;5067014;28;20052;-61
2022/01/18 11:54:27;;;;;;;10.77;2.28;;;;;;;5.37;79.38;102786.97;5064896;28;20293;-61
2022/01/18 11:56:54;;;;;;;18.02;2.60;;;;;;;5.45;79.03;102785.19;5069221;28;20064;-61
2022/01/18 11:59:27;;;;;;;16.48;2.75;;;;;;;5.63;75.81;102784.25;5064064;28;20087;-62
2022/01/18 12:01:59;;;;;;;14.85;2.22;;;;;;;5.67;75.94;102775.53;5070420;28;20049;-61
2022/01/18 12:04:46;;;;;;;22.35;2.80;;;;;;;5.86;75.39;102772.00;5065350;28;20652;-62
2022/01/18 12:07:47;;;;;;;12.15;2.60;;;;;;;6.39;74.16;102780.41;5063069;28;20056;-62
2022/01/18 12:10:27;;;;;;;17.20;2.03;;;;;;;6.95;73.58;102782.56;5060351;28;20551;-61
2022/01/18 12:12:56;;;;;;;16.67;2.78;;;;;;;7.28;70.80;102780.50;5069379;28;20056;-62
2022/01/18 12:15:24;;;;;;;22.33;3.30;;;;;;;7.34;68.64;102776.06;5065617;28;20055;-62
2022/01/18 12:17:53;;;;;;;10.43;2.72;;;;;;;7.29;69.47;102772.59;5069509;28;20053;-60
2022/01/18 12:20:32;;;;;;;15.23;2.67;;;;;;;7.36;68.35;102755.06;5069457;28;20213;-62
2022/01/18 12:23:04;;;;;;;18.58;2.45;;;;;;;8.50;65.78;102763.13;5079836;28;20050;-62
2022/01/18 12:25:34;;;;;;;15.13;2.63;;;;;;;8.45;65.02;102767.59;5060744;28;20076;-66
2022/01/18 12:28:35;;;;;;;18.92;2.45;;;;;;;8.09;65.38;102767.22;5071454;28;20163;-60
2022/01/18 12:31:23;;;;;;;14.88;2.33;;;;;;;7.91;66.70;102750.88;5067400;28;20060;-61
2022/01/18 12:33:51;;;;;;;13.93;3.17;;;;;;;7.59;66.75;102747.81;5067832;28;20058;-61
2022/01/18 12:36:31;;;;;;;13.00;2.83;;;;;;;7.56;66.36;102746.97;5063944;28;20062;-62
2022/01/18 12:38:59;;;;;;;9.90;1.77;;;;;;;7.38;66.64;102760.28;5050089;28;20083;-61
2022/01/18 12:41:44;;;;;;;11.32;2.63;;;;;;;7.01;68.64;102758.94;5065438;28;20051;-61
2022/01/18 12:44:20;;;;;;;16.20;3.45;;;;;;;6.78;69.55;102766.16;5061865;28;20567;-60